createdAt,value
2019-04-16T00:01:07.847Z,6.48
2019-04-16T00:04:16.063Z,6.47
2019-04-16T00:07:26.773Z,6.47
2019-04-16T00:10:38.114Z,6.36
2019-04-16T00:13:49.405Z,6.35
2019-04-16T00:16:53.047Z,6.28
2019-04-16T00:19:56.693Z,6.25
2019-04-16T00:23:10.881Z,6.21
2019-04-16T00:26:14.483Z,6.12
2019-04-16T00:29:18.018Z,6.16
2019-04-16T00:32:25.930Z,6.04
2019-04-16T00:35:28.469Z,6.16
2019-04-16T00:38:40.482Z,6.23
2019-04-16T00:41:37.277Z,6.18
2019-04-16T00:44:40.954Z,6.18
2019-04-16T00:47:44.613Z,6.24
2019-04-16T00:50:48.110Z,6.27
2019-04-16T00:53:51.632Z,6.29
2019-04-16T00:56:55.124Z,6.29
2019-04-16T00:59:58.715Z,6.17
2019-04-16T01:03:05.320Z,6.14
2019-04-16T01:06:08.943Z,6.09
2019-04-16T01:09:12.470Z,6.05
2019-04-16T01:12:16.047Z,5.96
2019-04-16T01:15:19.558Z,5.90
2019-04-16T01:18:23.190Z,5.80
2019-04-16T01:21:27.857Z,5.69
2019-04-16T01:24:31.730Z,5.77
2019-04-16T01:27:39.815Z,5.75
2019-04-16T01:30:45.118Z,5.63
2019-04-16T01:33:53.008Z,5.65
2019-04-16T01:36:58.170Z,5.63
2019-04-16T01:40:03.314Z,5.58
2019-04-16T01:43:07.093Z,5.59
2019-04-16T01:46:10.650Z,5.58
2019-04-16T01:49:14.172Z,5.55
2019-04-16T01:52:18.965Z,5.45
2019-04-16T01:55:25.645Z,5.49
2019-04-16T01:58:28.383Z,5.38
2019-04-16T02:01:31.896Z,5.39
2019-04-16T02:04:35.409Z,5.40
2019-04-16T02:07:38.906Z,5.35
2019-04-16T02:10:42.419Z,5.30
2019-04-16T02:13:46.869Z,5.26
2019-04-16T02:16:50.521Z,5.21
2019-04-16T02:19:54.121Z,5.18
2019-04-16T02:22:59.186Z,5.13
2019-04-16T02:26:02.712Z,5.17
2019-04-16T02:29:06.235Z,5.16
2019-04-16T02:32:09.847Z,5.10
2019-04-16T02:35:13.636Z,5.13
2019-04-16T02:38:18.298Z,5.11
2019-04-16T02:41:23.367Z,5.07
2019-04-16T02:44:27.108Z,5.04
2019-04-16T02:47:30.676Z,4.99
2019-04-16T02:50:39.071Z,4.97
2019-04-16T02:53:58.685Z,4.93
2019-04-16T02:57:03.014Z,4.96
2019-04-16T03:00:08.412Z,4.90
2019-04-16T03:03:16.465Z,4.91
2019-04-16T03:06:20.227Z,4.86
2019-04-16T03:09:23.739Z,4.88
2019-04-16T03:12:27.237Z,4.84
2019-04-16T03:15:35.517Z,4.80
2019-04-16T03:18:46.935Z,4.72
2019-04-16T03:21:48.392Z,4.71
2019-04-16T03:24:51.905Z,4.72
2019-04-16T03:27:55.390Z,4.67
2019-04-16T03:30:58.994Z,4.69
2019-04-16T03:34:02.573Z,4.69
2019-04-16T03:37:06.280Z,4.69
2019-04-16T03:40:17.305Z,4.66
2019-04-16T03:43:16.645Z,4.68
2019-04-16T03:46:20.278Z,4.61
2019-04-16T03:49:24.548Z,4.66
2019-04-16T03:52:29.275Z,4.69
2019-04-16T03:55:32.797Z,4.58
2019-04-16T03:58:38.635Z,4.57
2019-04-16T04:01:45.607Z,4.56
2019-04-16T04:04:47.438Z,4.49
2019-04-16T04:07:51.098Z,4.51
2019-04-16T04:10:54.682Z,4.46
2019-04-16T04:13:58.178Z,4.48
2019-04-16T04:17:05.448Z,4.44
2019-04-16T04:20:08.982Z,4.36
2019-04-16T04:23:12.689Z,4.33
2019-04-16T04:26:16.261Z,4.31
2019-04-16T04:29:24.742Z,4.28
2019-04-16T04:32:27.557Z,4.38
2019-04-16T04:35:31.124Z,4.35
2019-04-16T04:38:37.418Z,4.40
2019-04-16T04:41:40.809Z,4.41
2019-04-16T04:44:46.834Z,4.40
2019-04-16T04:47:51.622Z,4.58
2019-04-16T04:50:54.972Z,4.63
2019-04-16T04:53:58.478Z,4.88
2019-04-16T04:57:02.016Z,4.97
2019-04-16T05:00:09.555Z,5.04
2019-04-16T05:03:31.563Z,5.20
2019-04-16T05:06:36.740Z,5.40
2019-04-16T05:09:40.320Z,5.80
2019-04-16T05:12:43.834Z,5.83
2019-04-16T05:15:47.341Z,6.11
2019-04-16T05:18:50.850Z,6.40
2019-04-16T05:21:54.390Z,6.88
2019-04-16T05:25:01.335Z,6.98
2019-04-16T05:28:03.230Z,7.24
2019-04-16T05:31:06.852Z,7.24
2019-04-16T05:34:10.643Z,7.29
2019-04-16T05:37:16.677Z,6.88
2019-04-16T05:40:19.456Z,7.20
2019-04-16T05:43:23.274Z,7.31
2019-04-16T05:46:28.234Z,7.09
2019-04-16T05:49:32.023Z,7.36
2019-04-16T05:52:36.576Z,7.62
2019-04-16T05:55:41.826Z,7.90
2019-04-16T05:58:45.710Z,6.98
2019-04-16T06:02:01.135Z,8.04
2019-04-16T06:05:07.206Z,8.50
2019-04-16T06:08:11.582Z,8.85
2019-04-16T06:11:27.572Z,8.45
2019-04-16T06:14:31.947Z,8.64
2019-04-16T06:17:49.063Z,8.33
2019-04-16T06:21:10.186Z,9.15
2019-04-16T06:24:18.354Z,9.01
2019-04-16T06:27:35.702Z,10.07
2019-04-16T06:30:47.057Z,10.37
2019-04-16T06:33:58.275Z,10.60
2019-04-16T06:37:03.477Z,10.96
2019-04-16T06:40:12.100Z,9.77
2019-04-16T06:43:17.239Z,10.60
2019-04-16T06:46:39.994Z,10.80
2019-04-16T06:49:44.432Z,11.14
2019-04-16T06:53:05.499Z,11.59
2019-04-16T06:59:40.737Z,10.33
2019-04-16T07:03:01.807Z,10.54
2019-04-16T07:06:03.253Z,10.24
2019-04-16T07:09:09.577Z,10.56
2019-04-16T07:12:15.390Z,10.65
2019-04-16T07:15:22.617Z,11.13
2019-04-16T07:18:24.262Z,11.58
2019-04-16T07:21:27.784Z,12.25
2019-04-16T07:24:32.409Z,12.73
2019-04-16T07:27:39.050Z,12.93
2019-04-16T07:30:46.868Z,13.52
2019-04-16T07:34:03.742Z,14.14
2019-04-16T07:37:25.443Z,14.56
2019-04-16T07:40:46.788Z,14.81
2019-04-16T07:44:10.484Z,14.44
2019-04-16T07:47:19.744Z,14.01
2019-04-16T07:50:35.632Z,14.39
2019-04-16T07:53:40.790Z,14.44
2019-04-16T07:56:55.138Z,15.11
2019-04-16T07:59:58.726Z,15.03
2019-04-16T08:03:02.239Z,15.11
2019-04-16T08:06:05.775Z,15.28
2019-04-16T08:09:09.377Z,14.95
2019-04-16T08:12:29.437Z,15.16
2019-04-16T08:15:18.339Z,15.21
2019-04-16T08:18:22.604Z,15.27
2019-04-16T08:21:26.215Z,15.85
2019-04-16T08:24:34.107Z,15.57
2019-04-16T08:27:37.637Z,15.82
2019-04-16T08:30:41.223Z,15.47
2019-04-16T08:33:44.798Z,16.07
2019-04-16T08:36:48.426Z,14.71
2019-04-16T08:39:52.112Z,15.36
2019-04-16T08:42:57.442Z,15.91
2019-04-16T08:46:01.102Z,16.53
2019-04-16T08:49:05.115Z,16.61
2019-04-16T08:52:10.208Z,17.10
2019-04-16T08:55:14.414Z,17.28
2019-04-16T08:58:18.009Z,17.91
2019-04-16T09:01:23.529Z,17.90
2019-04-16T09:04:27.398Z,17.50
2019-04-16T09:07:39.750Z,18.01
2019-04-16T09:10:44.775Z,18.29
2019-04-16T09:13:53.289Z,18.14
2019-04-16T09:17:04.145Z,17.70
2019-04-16T09:20:09.750Z,17.07
2019-04-16T09:23:13.428Z,17.38
2019-04-16T09:26:30.271Z,18.33
2019-04-16T09:29:51.763Z,18.54
2019-04-16T09:33:01.021Z,18.81
2019-04-16T09:36:09.159Z,18.27
2019-04-16T09:39:30.599Z,19.41
2019-04-16T09:42:40.817Z,19.01
2019-04-16T09:45:44.428Z,19.27
2019-04-16T09:48:49.995Z,19.48
2019-04-16T09:51:53.498Z,20.47
2019-04-16T09:54:58.510Z,21.37
2019-04-16T09:58:06.919Z,22.50
2019-04-16T10:01:11.919Z,23.40
2019-04-16T10:04:17.288Z,23.90
2019-04-16T10:07:20.897Z,24.78
2019-04-16T10:10:28.001Z,23.01
2019-04-16T10:13:35.505Z,23.98
2019-04-16T10:16:35.561Z,23.04
2019-04-16T10:19:43.002Z,21.52
2019-04-16T10:22:49.379Z,22.21
2019-04-16T10:25:54.110Z,22.43
2019-04-16T10:28:59.333Z,23.35
2019-04-16T10:32:03.022Z,22.67
2019-04-16T10:35:06.832Z,23.81
2019-04-16T10:38:27.135Z,22.93
2019-04-16T10:41:56.483Z,24.85
2019-04-16T10:45:02.089Z,24.61
2019-04-16T10:48:22.822Z,24.74
2019-04-16T10:51:33.937Z,24.25
2019-04-16T10:54:39.317Z,25.49
2019-04-16T10:57:44.580Z,23.29
2019-04-16T11:00:52.771Z,23.80
2019-04-16T11:04:07.844Z,23.06
2019-04-16T11:07:19.985Z,23.15
2019-04-16T11:10:23.637Z,24.96
2019-04-16T11:13:37.702Z,24.52
2019-04-16T11:16:43.177Z,24.38
2019-04-16T11:19:46.940Z,25.37
2019-04-16T11:22:50.539Z,24.74
2019-04-16T11:25:54.134Z,24.71
2019-04-16T11:28:57.893Z,24.29
2019-04-16T11:32:01.620Z,24.61
2019-04-16T11:35:06.308Z,24.83
2019-04-16T11:38:09.927Z,24.67
2019-04-16T11:41:13.617Z,24.41
2019-04-16T11:44:17.532Z,24.55
2019-04-16T11:47:21.411Z,25.87
2019-04-16T11:50:25.058Z,27.23
2019-04-16T11:53:28.704Z,26.10
2019-04-16T11:56:32.827Z,26.43
2019-04-16T11:59:38.338Z,26.65
2019-04-16T12:02:59.505Z,27.26
2019-04-16T12:06:07.444Z,25.90
2019-04-16T12:09:24.779Z,25.07
2019-04-16T12:12:30.045Z,24.46
2019-04-16T12:15:35.366Z,24.15
2019-04-16T12:18:40.618Z,25.10
2019-04-16T12:22:02.641Z,23.49
2019-04-16T12:25:08.339Z,22.87
2019-04-16T12:28:13.684Z,24.80
2019-04-16T12:31:28.495Z,26.55
2019-04-16T12:34:36.606Z,26.63
2019-04-16T12:37:58.046Z,25.91
2019-04-16T12:41:03.302Z,25.42
2019-04-16T12:44:15.096Z,26.77
2019-04-16T12:47:22.869Z,22.90
2019-04-16T12:50:37.261Z,22.21
2019-04-16T12:53:42.560Z,24.09
2019-04-16T12:56:47.896Z,24.44
2019-04-16T12:59:55.001Z,23.75
2019-04-16T13:03:09.505Z,24.04
2019-04-16T13:06:14.849Z,25.42
2019-04-16T13:09:20.189Z,24.10
2019-04-16T13:12:34.690Z,24.43
2019-04-16T13:15:42.921Z,25.64
2019-04-16T13:19:03.529Z,25.98
2019-04-16T13:22:26.461Z,22.82
2019-04-16T13:25:37.421Z,21.90
2019-04-16T13:28:41.039Z,23.68
2019-04-16T13:31:44.673Z,23.44
2019-04-16T13:34:48.310Z,23.49
2019-04-16T13:37:51.955Z,23.70
2019-04-16T13:40:55.587Z,22.71
2019-04-16T13:44:00.855Z,23.69
2019-04-16T13:47:05.178Z,23.32
2019-04-16T13:50:13.539Z,21.42
2019-04-16T13:53:18.790Z,20.07
2019-04-16T13:56:26.556Z,19.45
2019-04-16T13:59:31.805Z,18.68
2019-04-16T14:02:52.152Z,18.20
2019-04-16T14:05:55.808Z,17.99
2019-04-16T14:08:59.740Z,18.08
2019-04-16T14:12:03.405Z,18.02
2019-04-16T14:15:10.088Z,17.91
2019-04-16T14:18:13.858Z,17.53
2019-04-16T14:21:17.626Z,17.26
2019-04-16T14:24:21.221Z,17.34
2019-04-16T14:27:24.855Z,17.07
2019-04-16T14:30:32.812Z,17.14
2019-04-16T14:33:40.387Z,17.12
2019-04-16T14:36:43.490Z,17.06
2019-04-16T14:39:48.788Z,16.87
2019-04-16T14:42:57.423Z,16.96
2019-04-16T14:46:00.316Z,16.90
2019-04-16T14:49:04.420Z,16.93
2019-04-16T14:52:08.174Z,16.94
2019-04-16T14:55:13.832Z,16.76
2019-04-16T14:58:25.566Z,16.70
2019-04-16T15:01:36.574Z,16.72
2019-04-16T15:04:58.744Z,16.66
2019-04-16T15:08:04.298Z,16.71
2019-04-16T15:11:18.948Z,16.86
2019-04-16T15:14:26.095Z,16.64
2019-04-16T15:17:44.047Z,16.47
2019-04-16T15:20:49.257Z,16.56
2019-04-16T15:24:12.859Z,16.47
2019-04-16T15:27:34.493Z,16.56
2019-04-16T15:30:49.187Z,16.46
2019-04-16T15:34:01.068Z,16.45
2019-04-16T15:37:18.270Z,16.39
2019-04-16T15:40:26.624Z,16.24
2019-04-16T15:43:37.542Z,16.17
2019-04-16T15:47:01.408Z,16.16
2019-04-16T15:50:20.419Z,16.20
2019-04-16T15:53:28.197Z,16.26
2019-04-16T15:56:33.472Z,16.13
2019-04-16T15:59:38.729Z,16.14
2019-04-16T16:03:00.191Z,16.14
2019-04-16T16:06:05.755Z,16.16
2019-04-16T16:09:11.049Z,16.09
2019-04-16T16:12:16.244Z,16.21
2019-04-16T16:15:19.954Z,16.04
2019-04-16T16:18:23.575Z,16.16
2019-04-16T16:21:27.130Z,16.03
2019-04-16T16:24:31.020Z,16.06
2019-04-16T16:27:34.593Z,15.94
2019-04-16T16:30:41.600Z,15.84
2019-04-16T16:33:47.177Z,15.79
2019-04-16T16:36:50.691Z,15.74
2019-04-16T16:39:55.831Z,15.70
2019-04-16T16:43:01.011Z,15.72
2019-04-16T16:46:18.665Z,15.66
2019-04-16T16:49:22.494Z,15.62
2019-04-16T16:52:36.655Z,15.53
2019-04-16T16:55:41.846Z,15.48
2019-04-16T16:58:50.521Z,15.41
2019-04-16T17:02:12.394Z,15.39
2019-04-16T17:05:21.008Z,15.31
2019-04-16T17:08:27.080Z,15.31
2019-04-16T17:11:30.358Z,15.25
2019-04-16T17:14:37.726Z,15.24
2019-04-16T17:17:39.502Z,15.10
2019-04-16T17:20:43.527Z,15.06
2019-04-16T17:23:48.520Z,15.01
2019-04-16T17:26:53.533Z,14.95
2019-04-16T17:29:58.172Z,14.91
2019-04-16T17:33:07.628Z,14.83
2019-04-16T17:36:14.821Z,14.73
2019-04-16T17:39:20.300Z,14.69
2019-04-16T17:42:34.257Z,14.63
2019-04-16T17:45:57.188Z,14.57
2019-04-16T17:49:25.709Z,14.50
2019-04-16T17:52:38.094Z,14.47
2019-04-16T17:56:05.088Z,14.35
2019-04-16T17:59:16.557Z,14.35
2019-04-16T18:02:46.574Z,14.25
2019-04-16T18:06:10.043Z,14.14
2019-04-16T18:09:20.445Z,14.08
2019-04-16T18:12:39.965Z,14.03
2019-04-16T18:15:53.819Z,13.99
2019-04-16T18:19:09.379Z,13.95
2019-04-16T18:22:15.842Z,13.97
2019-04-16T18:25:24.728Z,13.87
2019-04-16T18:28:37.276Z,13.93
2019-04-16T18:31:47.616Z,13.83
2019-04-16T18:35:16.107Z,13.74
2019-04-16T18:38:22.238Z,13.65
2019-04-16T18:41:45.866Z,13.58
2019-04-16T18:44:56.184Z,13.51
2019-04-16T18:48:05.369Z,13.46
2019-04-16T18:51:07.513Z,13.38
2019-04-16T18:54:11.364Z,13.33
2019-04-16T18:57:16.803Z,13.23
2019-04-16T19:00:33.156Z,13.16
2019-04-16T19:03:38.605Z,13.09
2019-04-16T19:06:45.804Z,13.08
2019-04-16T19:09:53.249Z,13.03
2019-04-16T19:12:57.401Z,12.93
2019-04-16T19:16:01.029Z,12.87
2019-04-16T19:19:11.952Z,12.83
2019-04-16T19:22:17.321Z,12.77
2019-04-16T19:25:21.142Z,12.70
2019-04-16T19:28:28.053Z,12.68
2019-04-16T19:31:31.741Z,12.65
2019-04-16T19:34:40.918Z,12.53
2019-04-16T19:37:43.820Z,12.52
2019-04-16T19:40:50.902Z,12.48
2019-04-16T19:43:55.932Z,12.40
2019-04-16T19:46:59.528Z,12.33
2019-04-16T19:50:03.372Z,12.33
2019-04-16T19:53:13.763Z,12.24
2019-04-16T19:56:19.601Z,12.24
2019-04-16T19:59:23.475Z,12.12
2019-04-16T20:02:32.989Z,12.02
2019-04-16T20:05:33.911Z,11.98
2019-04-16T20:08:40.888Z,11.89
2019-04-16T20:11:54.737Z,11.84
2019-04-16T20:14:58.984Z,11.80
2019-04-16T20:18:06.154Z,11.75
2019-04-16T20:21:13.564Z,11.70
2019-04-16T20:24:16.882Z,11.71
2019-04-16T20:27:21.664Z,11.63
2019-04-16T20:30:25.477Z,11.57
2019-04-16T20:33:29.250Z,11.51
2019-04-16T20:36:33.085Z,11.48
2019-04-16T20:39:40.550Z,11.42
2019-04-16T20:42:42.156Z,11.39
2019-04-16T20:45:45.728Z,11.33
2019-04-16T20:48:49.364Z,11.25
2019-04-16T20:51:56.579Z,11.25
2019-04-16T20:54:58.238Z,11.20
2019-04-16T20:58:01.811Z,11.14
2019-04-16T21:01:05.563Z,11.13
2019-04-16T21:04:09.106Z,11.11
2019-04-16T21:07:15.356Z,11.10
2019-04-16T21:10:18.204Z,11.04
2019-04-16T21:13:21.890Z,11.09
2019-04-16T21:16:25.457Z,10.96
2019-04-16T21:19:46.390Z,10.96
2019-04-16T21:22:49.937Z,10.89
2019-04-16T21:25:53.471Z,10.86
2019-04-16T21:29:02.108Z,10.78
2019-04-16T21:32:05.591Z,10.76
2019-04-16T21:35:16.763Z,10.75
2019-04-16T21:38:24.878Z,10.71
2019-04-16T21:41:29.607Z,10.62
2019-04-16T21:44:33.279Z,10.62
2019-04-16T21:47:36.875Z,10.56
2019-04-16T21:50:40.475Z,10.54
2019-04-16T21:53:44.087Z,10.55
2019-04-16T21:56:48.306Z,10.47
2019-04-16T21:59:56.853Z,10.44
2019-04-16T22:02:57.276Z,10.41
2019-04-16T22:06:00.865Z,10.37
2019-04-16T22:09:06.392Z,10.36
2019-04-16T22:12:15.224Z,10.37
2019-04-16T22:15:15.604Z,10.36
2019-04-16T22:18:19.706Z,10.29
2019-04-16T22:21:23.259Z,10.18
2019-04-16T22:24:26.891Z,10.14
2019-04-16T22:27:30.383Z,10.14
2019-04-16T22:30:33.991Z,10.07
2019-04-16T22:33:37.535Z,10.06
2019-04-16T22:36:41.169Z,9.95
2019-04-16T22:39:50.779Z,9.96
2019-04-16T22:43:07.055Z,9.87
2019-04-16T22:46:24.085Z,9.83
2019-04-16T22:49:28.009Z,9.80
2019-04-16T22:52:31.594Z,9.76
2019-04-16T22:55:35.217Z,9.68
2019-04-16T22:58:48.717Z,9.67
2019-04-16T23:01:53.403Z,9.66
2019-04-16T23:04:58.307Z,9.61
2019-04-16T23:08:02.805Z,9.55
2019-04-16T23:11:06.417Z,9.51
2019-04-16T23:14:10.012Z,9.42
2019-04-16T23:17:14.366Z,9.37
2019-04-16T23:20:29.258Z,9.37
2019-04-16T23:23:23.483Z,9.35
2019-04-16T23:26:32.158Z,9.37
2019-04-16T23:29:32.553Z,9.29
2019-04-16T23:32:36.027Z,9.25
2019-04-16T23:35:44.333Z,9.18
2019-04-16T23:38:44.929Z,9.16
2019-04-16T23:41:49.299Z,9.15
2019-04-16T23:44:54.810Z,9.09
2019-04-16T23:48:01.405Z,9.07
2019-04-16T23:51:08.981Z,9.00
2019-04-16T23:54:26.347Z,8.88
2019-04-16T23:57:43.564Z,8.83
